Time;durP1;ratioP1;P1;durP2;ratioP2;P2;SDS_P1;SDS_P2;PMS_P1;PMS_P2;Temp;Humidity;BMP_temperature;BMP_pressure;BME280_temperature;BME280_humidity;BME280_pressure;Samples;Min_cycle;Max_cycle;Signal;HPM_P1;HPM_P2
2022/10/17 00:00:12;;;;;;;10.73;6.70;;;15.70;99.90;;;;;;5081959;28;20553;-39
2022/10/17 00:02:39;;;;;;;9.83;5.97;;;15.70;99.90;;;;;;5081844;28;20585;-40
2022/10/17 00:05:06;;;;;;;11.10;6.17;;;15.60;99.90;;;;;;5081773;28;20434;-38
2022/10/17 00:07:34;;;;;;;11.03;6.60;;;15.70;99.90;;;;;;5082862;28;20456;-40
2022/10/17 00:10:04;;;;;;;6.30;5.10;;;15.70;99.90;;;;;;5084584;28;20480;-40
2022/10/17 00:12:33;;;;;;;7.77;6.07;;;15.50;99.90;;;;;;5084767;28;20450;-41
2022/10/17 00:14:59;;;;;;;7.80;6.97;;;15.70;99.90;;;;;;5083337;28;20470;-39
2022/10/17 00:17:26;;;;;;;8.63;5.97;;;15.70;99.90;;;;;;5083435;28;20474;-39
2022/10/17 00:19:53;;;;;;;8.30;5.77;;;15.70;99.90;;;;;;5084043;28;20442;-39
2022/10/17 00:22:20;;;;;;;7.87;5.50;;;15.70;99.90;;;;;;5083710;28;20485;-39
2022/10/17 00:24:48;;;;;;;7.70;6.20;;;15.70;99.90;;;;;;5084178;28;20456;-38
2022/10/17 00:27:15;;;;;;;9.97;6.07;;;15.70;99.90;;;;;;5084129;28;20462;-37
2022/10/17 00:30:07;;;;;;;7.27;6.00;;;15.60;99.90;;;;;;5083648;28;20446;-39
2022/10/17 00:32:34;;;;;;;8.73;6.00;;;15.60;99.90;;;;;;5083866;28;20523;-39
2022/10/17 00:35:02;;;;;;;8.27;4.90;;;15.60;99.90;;;;;;5083652;28;20772;-37
2022/10/17 00:37:30;;;;;;;8.60;5.67;;;15.60;99.90;;;;;;5083333;28;20481;-38
2022/10/17 00:39:59;;;;;;;8.33;5.03;;;15.60;99.90;;;;;;5083236;28;20481;-40
2022/10/17 00:42:26;;;;;;;9.70;6.20;;;15.50;99.90;;;;;;5083225;28;20442;-39
2022/10/17 00:45:17;;;;;;;7.00;5.27;;;15.50;99.90;;;;;;5082454;28;20465;-39
2022/10/17 00:47:54;;;;;;;5.77;5.00;;;15.60;99.90;;;;;;5083683;28;20423;-38
2022/10/17 00:50:21;;;;;;;6.93;6.07;;;15.60;99.90;;;;;;5083951;28;20434;-38
2022/10/17 00:52:49;;;;;;;6.37;5.30;;;15.60;99.90;;;;;;5083312;28;20442;-38
2022/10/17 00:55:23;;;;;;;6.93;4.50;;;15.60;99.90;;;;;;5083705;28;20965;-38
2022/10/17 00:57:52;;;;;;;6.70;5.00;;;15.60;99.90;;;;;;5083578;28;20890;-37
2022/10/17 01:00:19;;;;;;;8.37;5.97;;;15.60;99.90;;;;;;5083049;28;20437;-39
2022/10/17 01:02:47;;;;;;;16.00;5.47;;;15.60;99.90;;;;;;5082983;28;20462;-39
2022/10/17 01:05:15;;;;;;;10.63;5.70;;;15.60;99.90;;;;;;5083282;28;20466;-39
2022/10/17 01:07:42;;;;;;;8.50;5.10;;;15.60;99.90;;;;;;5082777;28;20445;-37
2022/10/17 01:10:11;;;;;;;5.13;4.33;;;15.60;99.90;;;;;;5083190;28;20816;-37
2022/10/17 01:12:50;;;;;;;6.90;4.57;;;15.60;99.90;;;;;;5083142;28;20462;-38
2022/10/17 01:15:33;;;;;;;5.57;4.77;;;15.60;99.90;;;;;;5084118;28;20440;-40
2022/10/17 01:18:13;;;;;;;5.10;3.90;;;15.70;99.90;;;;;;5083117;28;20462;-38
2022/10/17 01:21:19;;;;;;;7.03;4.53;;;15.60;99.90;;;;;;5082253;28;20453;-39
2022/10/17 01:24:26;;;;;;;5.10;4.60;;;14.90;99.90;;;;;;5020767;28;20523;-39
2022/10/17 01:27:07;;;;;;;10.53;5.10;;;15.50;99.90;;;;;;5004029;28;20953;-39
2022/10/17 01:29:54;;;;;;;5.33;4.30;;;15.50;99.90;;;;;;5074674;28;20764;-40
2022/10/17 01:32:32;;;;;;;10.77;4.40;;;15.40;99.90;;;;;;5083053;28;20431;-39
2022/10/17 01:35:05;;;;;;;5.30;4.80;;;15.40;99.90;;;;;;5083249;28;20466;-39
2022/10/17 01:37:35;;;;;;;7.33;6.67;;;15.40;99.90;;;;;;5081981;28;20474;-38
2022/10/17 01:40:10;;;;;;;6.13;4.83;;;15.40;99.90;;;;;;5081881;28;20455;-39
2022/10/17 01:42:42;;;;;;;12.77;5.33;;;15.40;99.90;;;;;;5082154;28;20430;-38
2022/10/17 01:45:13;;;;;;;6.77;5.00;;;15.30;99.90;;;;;;5081354;28;20454;-39
2022/10/17 01:47:42;;;;;;;8.20;5.40;;;15.30;99.90;;;;;;5082570;28;20422;-38
2022/10/17 01:50:14;;;;;;;10.17;5.10;;;15.20;99.90;;;;;;5082938;28;20474;-39
2022/10/17 01:52:45;;;;;;;6.67;5.00;;;15.20;99.90;;;;;;5082069;28;20476;-39
2022/10/17 01:55:16;;;;;;;6.00;4.53;;;15.20;99.90;;;;;;5082685;28;20457;-38
2022/10/17 01:57:49;;;;;;;5.87;4.43;;;15.20;99.90;;;;;;5081999;28;20462;-40
2022/10/17 02:00:20;;;;;;;4.27;3.87;;;15.10;99.90;;;;;;5081861;28;20776;-40
2022/10/17 02:02:51;;;;;;;6.13;4.53;;;15.00;99.90;;;;;;5081949;28;20533;-40
2022/10/17 02:05:22;;;;;;;9.73;4.20;;;15.00;99.90;;;;;;5082185;28;20509;-38
2022/10/17 02:07:49;;;;;;;7.10;3.90;;;15.00;99.90;;;;;;5082266;28;20859;-39
2022/10/17 02:10:21;;;;;;;5.10;3.90;;;14.90;99.90;;;;;;5081820;28;20469;-39
2022/10/17 02:12:56;;;;;;;5.90;3.80;;;15.00;99.90;;;;;;5081851;28;20444;-38
2022/10/17 02:15:46;;;;;;;5.73;3.83;;;15.00;99.90;;;;;;5082215;28;20501;-38
2022/10/17 02:18:31;;;;;;;6.27;4.53;;;14.90;99.90;;;;;;5080996;28;20982;-40
2022/10/17 02:21:04;;;;;;;3.73;3.23;;;14.90;99.90;;;;;;5081986;28;20452;-38
2022/10/17 02:23:38;;;;;;;4.53;3.77;;;14.90;99.90;;;;;;5081408;28;20462;-38
2022/10/17 02:26:10;;;;;;;5.67;4.33;;;14.90;99.90;;;;;;5081694;28;20431;-38
2022/10/17 02:28:43;;;;;;;4.50;3.90;;;14.90;99.90;;;;;;5081193;28;20415;-38
2022/10/17 02:31:15;;;;;;;6.03;4.60;;;15.00;99.90;;;;;;5081280;28;20434;-38
2022/10/17 02:33:49;;;;;;;4.10;3.03;;;15.00;99.90;;;;;;5081262;28;20723;-39
2022/10/17 02:36:36;;;;;;;4.33;3.60;;;15.00;99.90;;;;;;5081412;28;20481;-39
2022/10/17 02:39:05;;;;;;;10.03;4.07;;;15.00;99.90;;;;;;5081006;28;20965;-40
2022/10/17 02:41:35;;;;;;;4.50;3.70;;;15.00;99.90;;;;;;5081320;28;20466;-40
2022/10/17 02:44:03;;;;;;;4.73;4.30;;;15.00;99.90;;;;;;5080557;28;20457;-39
2022/10/17 02:46:32;;;;;;;4.77;3.40;;;15.10;99.90;;;;;;5081081;28;20445;-37
2022/10/17 02:49:07;;;;;;;5.57;4.20;;;15.10;99.90;;;;;;5080631;28;20521;-39
2022/10/17 02:51:40;;;;;;;7.80;3.40;;;15.00;99.90;;;;;;5082420;28;20436;-40
2022/10/17 02:54:12;;;;;;;4.70;4.20;;;15.10;99.90;;;;;;5082799;28;20458;-41
2022/10/17 02:56:45;;;;;;;3.80;3.50;;;15.00;99.90;;;;;;5083096;28;20755;-40
2022/10/17 02:59:15;;;;;;;4.50;3.50;;;15.10;99.90;;;;;;5084870;28;20480;-41
2022/10/17 03:01:42;;;;;;;6.20;4.23;;;15.00;99.90;;;;;;5084747;28;20442;-40
2022/10/17 03:04:12;;;;;;;3.73;3.03;;;15.00;99.90;;;;;;5084963;28;20446;-41
2022/10/17 03:06:40;;;;;;;4.10;3.70;;;15.00;99.90;;;;;;5083967;28;20477;-41
2022/10/17 03:09:23;;;;;;;4.67;4.00;;;15.00;99.90;;;;;;5082748;28;20453;-40
2022/10/17 03:11:49;;;;;;;5.70;4.20;;;15.00;99.90;;;;;;5078866;28;20462;-40
2022/10/17 03:14:16;;;;;;;7.00;4.13;;;15.00;99.90;;;;;;5081033;28;20446;-40
2022/10/17 03:16:43;;;;;;;5.70;4.10;;;15.00;99.90;;;;;;5080672;28;20442;-39
2022/10/17 03:19:14;;;;;;;6.07;4.10;;;15.00;99.90;;;;;;5081025;28;20486;-39
2022/10/17 03:21:44;;;;;;;5.70;3.47;;;15.00;99.90;;;;;;5081101;28;20426;-40
2022/10/17 03:24:18;;;;;;;5.43;4.13;;;15.10;99.90;;;;;;5080621;28;20489;-40
2022/10/17 03:26:44;;;;;;;4.60;3.40;;;15.10;99.90;;;;;;5080799;28;20415;-38
2022/10/17 03:29:11;;;;;;;5.43;4.40;;;15.10;99.90;;;;;;5080803;28;20458;-38
2022/10/17 03:31:40;;;;;;;5.63;3.50;;;15.10;99.90;;;;;;5080931;28;20450;-37
2022/10/17 03:34:07;;;;;;;5.60;4.33;;;15.10;99.90;;;;;;5081086;28;20438;-39
2022/10/17 03:36:35;;;;;;;4.57;4.07;;;15.10;99.90;;;;;;5080888;28;20556;-38
2022/10/17 03:39:02;;;;;;;4.93;4.43;;;15.20;99.90;;;;;;5080922;28;20986;-40
2022/10/17 03:41:29;;;;;;;8.27;4.87;;;15.10;99.90;;;;;;5081375;28;20443;-39
2022/10/17 03:43:57;;;;;;;3.83;3.50;;;15.20;99.90;;;;;;5080903;28;20458;-39
2022/10/17 03:46:24;;;;;;;5.67;4.53;;;15.20;99.90;;;;;;5085017;28;20470;-39
2022/10/17 03:48:50;;;;;;;5.47;3.70;;;15.20;99.90;;;;;;5084121;28;20927;-44
2022/10/17 03:51:17;;;;;;;3.33;3.03;;;15.20;99.90;;;;;;5084689;28;20509;-38
2022/10/17 03:53:46;;;;;;;5.93;4.20;;;15.20;99.90;;;;;;5084565;28;20450;-39
2022/10/17 03:56:15;;;;;;;3.70;3.40;;;15.20;99.90;;;;;;5084908;28;20442;-37
2022/10/17 03:58:43;;;;;;;3.90;3.53;;;15.20;99.90;;;;;;5084085;28;20496;-41
2022/10/17 04:01:11;;;;;;;6.37;3.40;;;15.40;99.90;;;;;;5084278;28;20556;-39
2022/10/17 04:03:38;;;;;;;3.80;3.50;;;15.20;99.90;;;;;;5084267;28;20862;-39
2022/10/17 04:06:07;;;;;;;8.13;4.30;;;15.10;99.90;;;;;;5084316;28;20446;-40
2022/10/17 04:08:34;;;;;;;6.03;4.53;;;15.10;99.90;;;;;;5084025;28;20492;-39
2022/10/17 04:11:07;;;;;;;4.23;3.80;;;15.10;99.90;;;;;;5084320;28;20431;-37
2022/10/17 04:13:40;;;;;;;5.30;4.00;;;15.10;99.90;;;;;;5083494;28;20548;-37
2022/10/17 04:16:10;;;;;;;4.80;3.97;;;15.10;99.90;;;;;;5083672;28;20462;-38
2022/10/17 04:18:41;;;;;;;5.40;3.90;;;15.10;99.90;;;;;;5083939;28;20497;-40
2022/10/17 04:21:08;;;;;;;4.30;3.90;;;15.10;99.90;;;;;;5083471;28;20495;-38
2022/10/17 04:23:36;;;;;;;6.03;3.90;;;15.10;99.90;;;;;;5083953;28;20442;-39
2022/10/17 04:26:06;;;;;;;5.10;4.20;;;15.10;99.90;;;;;;5083713;28;20446;-38
2022/10/17 04:28:33;;;;;;;6.07;4.03;;;15.00;99.90;;;;;;5084136;28;20423;-39
2022/10/17 04:31:03;;;;;;;6.00;3.80;;;15.00;99.90;;;;;;5083252;28;20791;-39
2022/10/17 04:33:34;;;;;;;13.00;4.27;;;15.00;99.90;;;;;;5083178;28;20442;-37
2022/10/17 04:36:06;;;;;;;8.33;3.20;;;15.00;99.90;;;;;;5083001;28;20434;-39
2022/10/17 04:38:34;;;;;;;4.70;4.20;;;14.90;99.90;;;;;;5082841;28;20493;-39
2022/10/17 04:41:03;;;;;;;4.97;3.93;;;15.00;99.90;;;;;;5083481;28;20465;-39
2022/10/17 04:43:33;;;;;;;5.13;3.80;;;15.00;99.90;;;;;;5082875;28;20496;-39
2022/10/17 04:46:00;;;;;;;7.67;4.50;;;15.00;99.90;;;;;;5082813;28;20517;-40
2022/10/17 04:48:28;;;;;;;6.00;4.00;;;15.00;99.90;;;;;;5083485;28;20553;-39
2022/10/17 04:50:55;;;;;;;5.80;3.97;;;15.00;99.90;;;;;;5083133;28;20442;-39
2022/10/17 04:53:23;;;;;;;4.60;3.80;;;15.00;99.90;;;;;;5083287;28;20434;-40
2022/10/17 04:55:50;;;;;;;6.67;4.33;;;15.00;99.90;;;;;;5082092;28;20518;-40
2022/10/17 04:58:18;;;;;;;3.97;3.53;;;15.00;99.90;;;;;;5081947;28;20504;-39
2022/10/17 05:00:46;;;;;;;3.97;3.57;;;15.00;99.90;;;;;;5082731;28;20450;-38
2022/10/17 05:03:19;;;;;;;6.83;4.40;;;15.00;99.90;;;;;;5082813;28;20438;-38
2022/10/17 05:05:47;;;;;;;4.20;3.63;;;15.00;99.90;;;;;;5084065;28;20442;-38
2022/10/17 05:08:16;;;;;;;6.37;3.70;;;15.00;99.90;;;;;;5083897;28;20795;-38
2022/10/17 05:10:45;;;;;;;8.50;4.30;;;15.00;99.90;;;;;;5083920;28;20472;-39
2022/10/17 05:13:13;;;;;;;7.07;4.30;;;15.00;99.90;;;;;;5083470;28;20531;-39
2022/10/17 05:15:40;;;;;;;7.00;5.30;;;15.00;99.90;;;;;;5083365;28;20872;-37
2022/10/17 05:18:08;;;;;;;5.80;3.70;;;15.00;99.90;;;;;;5082613;28;20446;-38
2022/10/17 05:20:35;;;;;;;5.50;4.33;;;14.90;99.90;;;;;;5082991;28;20450;-38
2022/10/17 05:23:02;;;;;;;7.13;4.30;;;15.00;99.90;;;;;;5082742;28;20457;-39
2022/10/17 05:25:29;;;;;;;4.07;3.67;;;15.00;99.90;;;;;;5082971;28;20477;-40
2022/10/17 05:27:56;;;;;;;4.60;4.03;;;15.00;99.90;;;;;;5082485;28;20516;-39
2022/10/17 05:30:23;;;;;;;5.60;4.30;;;14.90;99.90;;;;;;5082977;28;20474;-39
2022/10/17 05:32:55;;;;;;;5.80;5.07;;;14.90;99.90;;;;;;5082621;28;20446;-38
2022/10/17 05:35:23;;;;;;;5.37;4.67;;;14.90;99.90;;;;;;5083262;28;20423;-40
2022/10/17 05:37:50;;;;;;;5.40;4.80;;;14.90;99.90;;;;;;5082930;28;20438;-39
2022/10/17 05:40:17;;;;;;;4.37;3.97;;;14.90;99.90;;;;;;5082503;28;20484;-40
2022/10/17 05:42:50;;;;;;;5.60;4.60;;;14.90;99.90;;;;;;5082265;28;20474;-37
2022/10/17 05:45:17;;;;;;;7.70;4.77;;;14.90;99.90;;;;;;5083573;28;20783;-37
2022/10/17 05:47:44;;;;;;;7.90;4.60;;;14.90;99.90;;;;;;5068281;28;20533;-40
2022/10/17 05:50:11;;;;;;;11.17;5.03;;;14.90;99.90;;;;;;5062003;28;20455;-38
2022/10/17 05:52:39;;;;;;;4.80;4.30;;;14.90;99.90;;;;;;5080554;28;20549;-39
2022/10/17 05:55:07;;;;;;;5.77;4.60;;;14.90;99.90;;;;;;5080053;28;20453;-39
2022/10/17 05:57:34;;;;;;;6.60;4.67;;;14.90;99.90;;;;;;5080235;28;20442;-42
2022/10/17 06:00:01;;;;;;;5.23;4.10;;;14.90;99.90;;;;;;5079635;28;20586;-40
2022/10/17 06:02:27;;;;;;;6.30;4.83;;;15.00;99.90;;;;;;5080154;28;21113;-42
2022/10/17 06:04:54;;;;;;;9.53;5.50;;;15.00;99.90;;;;;;5074158;28;20836;-40
2022/10/17 06:07:21;;;;;;;13.50;5.37;;;15.00;99.90;;;;;;5076417;28;20447;-42
2022/10/17 06:09:49;;;;;;;6.63;4.70;;;15.10;99.90;;;;;;5074970;28;20464;-39
2022/10/17 06:12:16;;;;;;;6.40;5.43;;;15.10;99.90;;;;;;5068381;28;20535;-41
2022/10/17 06:14:43;;;;;;;4.50;3.80;;;15.10;99.90;;;;;;5076363;28;20775;-42
2022/10/17 06:17:10;;;;;;;9.07;4.40;;;15.20;99.90;;;;;;5076314;28;20509;-40
2022/10/17 06:19:36;;;;;;;4.77;4.37;;;15.50;99.90;;;;;;5076454;28;20473;-42
2022/10/17 06:22:03;;;;;;;8.90;6.37;;;15.70;99.90;;;;;;5076292;28;20993;-42
2022/10/17 06:24:30;;;;;;;7.70;4.40;;;15.80;99.90;;;;;;5077090;28;20449;-41
2022/10/17 06:26:58;;;;;;;6.13;5.03;;;16.00;99.90;;;;;;5076852;28;20470;-44
2022/10/17 06:29:25;;;;;;;10.23;4.27;;;17.70;99.90;;;;;;5076601;28;20883;-43
2022/10/17 06:31:52;;;;;;;5.77;4.80;;;16.20;99.90;;;;;;5079486;28;20531;-38
2022/10/17 06:34:19;;;;;;;6.03;4.80;;;16.20;99.90;;;;;;5091928;28;20442;-43
2022/10/17 06:36:47;;;;;;;8.27;4.43;;;16.20;99.90;;;;;;5096943;28;20460;-42
2022/10/17 06:39:14;;;;;;;5.03;4.50;;;16.30;99.90;;;;;;5096626;28;20468;-41
2022/10/17 06:41:43;;;;;;;4.60;4.20;;;16.40;99.90;;;;;;5096952;28;20453;-47
2022/10/17 06:44:11;;;;;;;6.70;4.97;;;16.30;99.90;;;;;;5096408;28;20526;-38
2022/10/17 06:46:39;;;;;;;6.30;4.90;;;16.50;99.90;;;;;;5096286;28;20458;-40
2022/10/17 06:49:06;;;;;;;5.30;4.10;;;16.40;99.90;;;;;;5096365;28;20437;-44
2022/10/17 06:51:36;;;;;;;6.03;4.03;;;16.50;99.90;;;;;;5089721;28;20467;-43
2022/10/17 06:54:03;;;;;;;4.93;4.40;;;16.70;99.90;;;;;;5078420;28;20477;-42
2022/10/17 06:56:30;;;;;;;8.33;4.00;;;16.70;99.90;;;;;;5096029;28;20464;-44
2022/10/17 06:58:57;;;;;;;5.00;4.13;;;16.80;99.90;;;;;;5096158;28;20481;-41
2022/10/17 07:01:25;;;;;;;4.93;4.27;;;16.90;99.90;;;;;;5096156;28;20529;-43
2022/10/17 07:03:52;;;;;;;6.30;4.63;;;17.00;99.90;;;;;;5074538;28;20442;-41
2022/10/17 07:06:19;;;;;;;4.90;4.40;;;16.80;99.90;;;;;;5076103;28;20569;-42
2022/10/17 07:08:47;;;;;;;5.50;4.40;;;16.70;99.90;;;;;;5075279;28;20491;-42
2022/10/17 07:11:17;;;;;;;4.70;3.77;;;16.60;99.90;;;;;;5075276;28;20471;-39
2022/10/17 07:13:44;;;;;;;5.23;4.20;;;16.50;99.90;;;;;;5075796;28;20442;-41
2022/10/17 07:16:11;;;;;;;8.53;4.70;;;16.40;99.90;;;;;;5075351;28;20446;-40
2022/10/17 07:18:40;;;;;;;7.83;5.53;;;16.30;99.90;;;;;;5075386;28;20464;-41
2022/10/17 07:21:07;;;;;;;8.10;4.60;;;16.20;99.90;;;;;;5074909;28;20454;-42
2022/10/17 07:23:35;;;;;;;11.07;4.17;;;16.20;99.90;;;;;;5075612;28;20477;-42
2022/10/17 07:26:05;;;;;;;6.03;4.57;;;16.30;99.90;;;;;;5075577;28;20545;-43
2022/10/17 07:28:32;;;;;;;4.33;3.93;;;16.30;99.90;;;;;;5075825;28;20482;-42
2022/10/17 07:31:03;;;;;;;5.80;4.23;;;16.30;99.90;;;;;;5075196;28;20430;-41
2022/10/17 07:33:30;;;;;;;4.53;3.97;;;16.20;99.90;;;;;;5075320;28;20729;-44
2022/10/17 07:36:00;;;;;;;5.80;4.07;;;16.20;99.90;;;;;;5075731;28;20764;-44
2022/10/17 07:38:26;;;;;;;4.70;3.90;;;16.30;99.90;;;;;;5075544;28;20461;-43
2022/10/17 07:40:58;;;;;;;9.10;4.60;;;16.30;99.90;;;;;;5075327;28;20490;-39
2022/10/17 07:43:25;;;;;;;6.83;4.20;;;16.20;99.90;;;;;;5075508;28;20457;-41
2022/10/17 07:45:53;;;;;;;13.43;4.53;;;16.70;99.90;;;;;;5075064;28;20474;-40
2022/10/17 07:48:21;;;;;;;5.23;3.80;;;16.30;99.90;;;;;;5075443;28;20442;-41
2022/10/17 07:50:48;;;;;;;4.30;3.90;;;16.30;99.90;;;;;;5075015;28;20446;-40
2022/10/17 07:53:17;;;;;;;8.40;3.97;;;16.30;99.90;;;;;;5074856;28;20945;-41
2022/10/17 07:55:45;;;;;;;5.30;4.47;;;16.40;99.90;;;;;;5075461;28;20453;-39
2022/10/17 07:58:12;;;;;;;4.57;4.00;;;16.50;99.90;;;;;;5074718;28;20608;-40
2022/10/17 08:00:39;;;;;;;7.97;5.33;;;16.50;99.90;;;;;;5075000;28;20501;-43
2022/10/17 08:03:07;;;;;;;3.47;3.13;;;16.60;99.90;;;;;;5074881;28;20470;-44
2022/10/17 08:05:35;;;;;;;4.17;3.60;;;16.80;99.90;;;;;;5074968;28;20480;-40
2022/10/17 08:08:02;;;;;;;4.97;3.83;;;16.90;99.90;;;;;;5075068;28;20452;-40
2022/10/17 08:10:30;;;;;;;4.87;3.70;;;17.00;99.90;;;;;;5075135;28;20492;-43
2022/10/17 08:12:58;;;;;;;4.83;3.87;;;17.10;99.90;;;;;;5075055;28;20464;-44
2022/10/17 08:15:26;;;;;;;6.23;4.07;;;17.20;99.90;;;;;;5074941;28;20766;-39
2022/10/17 08:17:54;;;;;;;3.50;3.17;;;17.30;99.90;;;;;;5074640;28;20923;-42
2022/10/17 08:20:21;;;;;;;6.63;4.63;;;17.40;99.90;;;;;;5074357;28;20490;-39
2022/10/17 08:22:52;;;;;;;4.20;3.30;;;17.50;99.90;;;;;;5074845;28;20453;-39
2022/10/17 08:25:19;;;;;;;10.23;4.83;;;17.60;99.90;;;;;;5074671;28;20462;-40
2022/10/17 08:27:47;;;;;;;4.57;4.00;;;17.70;99.90;;;;;;5074671;28;20780;-39
2022/10/17 08:30:14;;;;;;;4.63;3.50;;;17.90;99.90;;;;;;5074523;28;20888;-40
2022/10/17 08:32:41;;;;;;;4.10;3.47;;;18.10;99.90;;;;;;5078228;28;20444;-40
2022/10/17 08:35:08;;;;;;;4.30;3.17;;;18.20;99.90;;;;;;5077898;28;21029;-40
2022/10/17 08:37:35;;;;;;;5.00;3.07;;;18.30;99.90;;;;;;5077734;28;20502;-38
2022/10/17 08:40:02;;;;;;;4.53;3.23;;;18.40;99.90;;;;;;5077634;28;20576;-43
2022/10/17 08:42:45;;;;;;;3.87;3.47;;;18.60;99.90;;;;;;5077963;28;20470;-40
2022/10/17 08:45:24;;;;;;;3.83;2.60;;;18.70;99.90;;;;;;5077781;28;20527;-41
2022/10/17 08:47:54;;;;;;;6.40;3.87;;;18.80;99.90;;;;;;5078133;28;20437;-45
2022/10/17 08:50:32;;;;;;;7.00;3.40;;;18.90;99.90;;;;;;5077826;28;20433;-42
2022/10/17 08:53:05;;;;;;;8.93;3.27;;;19.00;99.90;;;;;;5077850;28;20445;-42
2022/10/17 08:55:37;;;;;;;4.00;2.90;;;19.20;99.90;;;;;;5077838;28;20889;-41
2022/10/17 08:58:11;;;;;;;3.27;2.67;;;19.30;99.90;;;;;;5076647;28;20418;-40
2022/10/17 09:00:42;;;;;;;3.37;3.07;;;19.40;99.90;;;;;;5077167;28;20862;-41
2022/10/17 09:03:20;;;;;;;3.50;2.80;;;19.60;99.90;;;;;;5077166;28;20443;-41
2022/10/17 09:05:51;;;;;;;3.90;3.47;;;19.70;99.90;;;;;;5077076;28;20480;-40
2022/10/17 09:08:30;;;;;;;4.00;3.20;;;19.90;99.90;;;;;;5077364;28;20521;-44
2022/10/17 09:11:02;;;;;;;3.20;2.27;;;20.10;99.90;;;;;;5077280;28;20462;-42
2022/10/17 09:13:43;;;;;;;2.70;2.33;;;20.30;99.90;;;;;;5076830;28;20494;-41
2022/10/17 09:16:36;;;;;;;3.20;2.83;;;20.40;99.90;;;;;;5077279;28;20438;-40
2022/10/17 09:19:09;;;;;;;2.90;2.60;;;20.60;99.90;;;;;;5076953;28;20447;-41
2022/10/17 09:21:43;;;;;;;3.83;2.10;;;20.80;99.90;;;;;;5077012;28;20519;-41
2022/10/17 09:24:16;;;;;;;4.63;2.60;;;21.00;99.90;;;;;;5076712;28;20514;-41
2022/10/17 09:26:46;;;;;;;4.23;2.70;;;21.20;99.90;;;;;;5076943;28;20426;-41
2022/10/17 09:29:19;;;;;;;4.10;2.80;;;21.40;99.90;;;;;;5076894;28;20933;-42
2022/10/17 09:31:53;;;;;;;2.83;2.40;;;21.80;99.90;;;;;;5076895;28;20434;-42
2022/10/17 09:34:20;;;;;;;4.47;2.40;;;22.70;99.90;;;;;;5076835;28;20557;-39
2022/10/17 09:36:47;;;;;;;3.37;2.60;;;23.70;99.90;;;;;;5076630;28;20537;-38
2022/10/17 09:39:17;;;;;;;3.60;2.43;;;24.70;99.90;;;;;;5076377;28;20446;-41
2022/10/17 09:41:48;;;;;;;3.03;2.47;;;25.60;99.90;;;;;;5075814;28;20546;-40
2022/10/17 09:44:18;;;;;;;3.43;2.20;;;26.30;99.90;;;;;;5075563;28;20439;-38
2022/10/17 09:47:11;;;;;;;2.90;2.43;;;26.90;99.90;;;;;;5076253;28;20962;-42
2022/10/17 09:49:39;;;;;;;3.33;2.30;;;27.40;99.90;;;;;;5076354;28;20427;-40
2022/10/17 09:52:11;;;;;;;6.10;2.87;;;27.80;99.90;;;;;;5076056;28;20565;-40
2022/10/17 09:54:43;;;;;;;3.20;2.80;;;28.30;99.90;;;;;;5076087;28;20819;-41
2022/10/17 09:57:12;;;;;;;6.37;2.83;;;28.60;99.90;;;;;;5076017;28;20565;-40
2022/10/17 09:59:41;;;;;;;2.80;2.40;;;29.00;99.90;;;;;;5075940;28;20478;-46
2022/10/17 10:02:19;;;;;;;2.40;2.07;;;29.50;98.40;;;;;;5075915;28;20467;-43
2022/10/17 10:04:57;;;;;;;2.90;2.17;;;29.80;95.30;;;;;;5075568;28;20926;-42
2022/10/17 10:07:25;;;;;;;4.10;2.63;;;29.90;94.00;;;;;;5075401;28;20431;-41
2022/10/17 10:09:53;;;;;;;3.40;2.43;;;30.10;93.00;;;;;;5075741;28;20799;-40
2022/10/17 10:12:22;;;;;;;2.73;2.20;;;30.00;92.60;;;;;;5075716;28;20533;-41
2022/10/17 10:14:49;;;;;;;5.50;3.57;;;30.20;91.80;;;;;;5076131;28;20501;-49
2022/10/17 10:17:36;;;;;;;3.50;2.80;;;30.30;90.90;;;;;;5075886;28;20851;-44
2022/10/17 10:20:25;;;;;;;3.10;2.63;;;30.50;90.10;;;;;;5075522;28;20474;-40
2022/10/17 10:23:17;;;;;;;3.10;2.47;;;30.30;89.50;;;;;;5075612;28;20439;-46
2022/10/17 10:25:54;;;;;;;2.60;2.40;;;29.80;90.40;;;;;;5055994;28;20446;-41
2022/10/17 10:28:25;;;;;;;4.73;2.87;;;29.40;91.10;;;;;;5081688;28;20525;-40
2022/10/17 10:30:54;;;;;;;5.00;2.93;;;29.20;91.80;;;;;;5095393;28;20899;-44
2022/10/17 10:33:25;;;;;;;3.03;2.43;;;29.00;91.50;;;;;;5095744;28;20464;-43
2022/10/17 10:35:56;;;;;;;3.50;2.60;;;28.80;92.20;;;;;;5095320;28;20425;-41
2022/10/17 10:38:23;;;;;;;5.60;2.50;;;28.70;92.50;;;;;;5095249;28;20518;-39
2022/10/17 10:40:54;;;;;;;3.10;2.57;;;28.60;92.60;;;;;;5095150;28;20481;-41
2022/10/17 10:43:24;;;;;;;2.73;2.53;;;28.60;92.70;;;;;;5095549;28;20843;-42
2022/10/17 10:45:52;;;;;;;4.10;2.87;;;28.60;92.70;;;;;;5095096;28;20457;-40
2022/10/17 10:48:23;;;;;;;3.63;2.30;;;28.60;92.00;;;;;;5094833;28;20445;-42
2022/10/17 10:50:52;;;;;;;3.53;2.73;;;28.50;92.10;;;;;;5094764;28;20468;-42
2022/10/17 10:53:41;;;;;;;4.30;2.73;;;28.40;92.50;;;;;;5094960;28;20514;-43
2022/10/17 10:56:12;;;;;;;2.73;2.30;;;28.50;92.50;;;;;;5094824;28;20530;-42
2022/10/17 10:58:46;;;;;;;4.13;2.20;;;28.30;92.60;;;;;;5095173;28;20766;-42
2022/10/17 11:01:19;;;;;;;5.53;2.80;;;28.00;92.80;;;;;;5095029;28;20562;-41
2022/10/17 11:03:57;;;;;;;2.40;2.13;;;27.70;93.60;;;;;;5094768;28;20495;-42
2022/10/17 11:06:27;;;;;;;6.13;2.33;;;27.30;94.30;;;;;;5095249;28;20556;-42
2022/10/17 11:09:12;;;;;;;2.53;1.90;;;27.10;95.10;;;;;;5095153;28;20872;-41
2022/10/17 11:11:44;;;;;;;2.77;2.37;;;26.90;95.40;;;;;;5094880;28;20517;-41
2022/10/17 11:14:16;;;;;;;5.33;2.70;;;26.60;96.10;;;;;;5094787;28;20962;-41
2022/10/17 11:16:49;;;;;;;2.57;2.37;;;26.50;96.90;;;;;;5094602;28;20469;-42
2022/10/17 11:19:25;;;;;;;3.50;2.40;;;26.40;97.60;;;;;;5094523;28;20426;-46
2022/10/17 11:22:04;;;;;;;2.70;2.10;;;26.30;98.30;;;;;;5094567;28;20457;-39
2022/10/17 11:24:37;;;;;;;2.93;2.10;;;26.20;98.30;;;;;;5094622;28;20502;-41
2022/10/17 11:27:06;;;;;;;3.80;2.10;;;26.00;98.70;;;;;;5094734;28;20433;-43
2022/10/17 11:29:37;;;;;;;6.03;2.70;;;25.80;99.10;;;;;;5094693;28;20461;-39
2022/10/17 11:32:13;;;;;;;3.17;2.70;;;25.60;99.50;;;;;;5094784;28;20723;-43
2022/10/17 11:34:45;;;;;;;4.10;2.43;;;25.50;99.80;;;;;;5094641;28;20487;-43
2022/10/17 11:37:17;;;;;;;2.83;2.57;;;25.50;99.90;;;;;;5094487;28;20893;-41
2022/10/17 11:39:48;;;;;;;5.47;2.60;;;25.40;99.90;;;;;;5094716;28;20748;-41
2022/10/17 11:42:20;;;;;;;3.03;2.10;;;25.30;99.90;;;;;;5094312;28;20442;-42
2022/10/17 11:44:51;;;;;;;3.00;2.20;;;25.00;99.90;;;;;;5094300;28;20457;-42
2022/10/17 11:47:30;;;;;;;2.80;2.50;;;24.90;99.90;;;;;;5094343;28;20925;-40
2022/10/17 11:50:13;;;;;;;3.00;2.40;;;24.90;99.90;;;;;;5094587;28;20894;-43
2022/10/17 11:52:43;;;;;;;5.60;2.70;;;24.90;99.90;;;;;;5094499;28;20789;-42
2022/10/17 11:55:19;;;;;;;3.27;2.33;;;24.90;99.90;;;;;;5094517;28;20442;-42
2022/10/17 11:58:04;;;;;;;2.50;2.30;;;24.80;99.90;;;;;;5094500;28;20457;-39
2022/10/17 12:00:42;;;;;;;3.10;2.80;;;24.70;99.90;;;;;;5094317;28;20469;-42
2022/10/17 12:03:25;;;;;;;2.53;2.33;;;24.80;99.90;;;;;;5094455;28;20508;-43
2022/10/17 12:06:00;;;;;;;3.50;3.03;;;24.80;99.90;;;;;;5095381;28;20444;-43
2022/10/17 12:08:36;;;;;;;2.40;2.03;;;24.90;99.90;;;;;;5098329;28;20445;-40
2022/10/17 12:11:09;;;;;;;3.20;2.17;;;25.00;99.90;;;;;;5098108;28;20520;-43
2022/10/17 12:13:55;;;;;;;4.47;2.60;;;25.00;99.90;;;;;;5098493;28;20425;-41
2022/10/17 12:16:48;;;;;;;4.57;3.10;;;24.80;99.90;;;;;;5098230;28;20473;-41
2022/10/17 12:19:23;;;;;;;5.10;2.70;;;24.80;99.90;;;;;;5098453;28;20512;-43
2022/10/17 12:21:57;;;;;;;3.40;2.73;;;24.90;99.90;;;;;;5097818;28;20499;-39
2022/10/17 12:24:33;;;;;;;3.23;2.53;;;25.10;99.90;;;;;;5098183;28;20467;-42
2022/10/17 12:27:32;;;;;;;3.97;2.13;;;25.20;99.90;;;;;;5097785;28;20483;-44
2022/10/17 12:30:01;;;;;;;6.00;2.50;;;25.30;99.90;;;;;;5097872;28;20442;-39
2022/10/17 12:32:28;;;;;;;5.40;2.67;;;25.30;99.90;;;;;;5097785;28;20959;-42
2022/10/17 12:34:57;;;;;;;4.77;2.67;;;25.40;99.90;;;;;;5097623;28;20585;-39
2022/10/17 12:38:21;;;;;;;4.10;2.60;;;25.50;99.90;;;;;;5097740;28;20441;-41
2022/10/17 12:41:07;;;;;;;4.97;2.90;;;25.60;99.90;;;;;;5084510;28;20593;-41
2022/10/17 12:43:53;;;;;;;2.73;2.13;;;25.80;99.90;;;;;;5097733;28;20465;-41
2022/10/17 12:46:49;;;;;;;3.87;3.47;;;25.80;99.90;;;;;;5097243;28;20453;-41
2022/10/17 12:49:39;;;;;;;4.80;3.07;;;25.70;99.90;;;;;;5097673;28;20922;-44
2022/10/17 12:52:24;;;;;;;3.33;2.73;;;25.70;99.90;;;;;;5098029;28;20426;-43
2022/10/17 12:54:58;;;;;;;3.03;2.40;;;25.60;99.90;;;;;;5097033;28;20803;-43
2022/10/17 12:57:33;;;;;;;3.20;2.63;;;25.50;99.90;;;;;;5097426;28;20413;-41
2022/10/17 13:00:04;;;;;;;2.77;2.00;;;25.40;99.90;;;;;;5097566;28;20425;-39
2022/10/17 13:02:31;;;;;;;3.57;2.80;;;25.40;99.90;;;;;;5097435;28;20476;-38
2022/10/17 13:05:07;;;;;;;4.57;3.00;;;25.40;99.90;;;;;;5097171;28;20451;-40
2022/10/17 13:07:35;;;;;;;3.67;2.97;;;25.40;99.90;;;;;;5097234;28;20433;-42